Time;durP1;ratioP1;P1;durP2;ratioP2;P2;SDS_P1;SDS_P2;PMS_P1;PMS_P2;Temp;Humidity;BMP_temperature;BMP_pressure;BME280_temperature;BME280_humidity;BME280_pressure;Samples;Min_cycle;Max_cycle;Signal;HPM_P1;HPM_P2
2021/12/15 00:01:36;;;;;;;37.53;15.43;;;10.10;99.90;;;;;;5022582;28;20446;-65
2021/12/15 00:04:02;;;;;;;34.10;13.55;;;10.10;99.90;;;;;;5019371;28;20117;-64
2021/12/15 00:06:27;;;;;;;33.67;14.25;;;10.10;99.90;;;;;;5000530;28;20041;-65
2021/12/15 00:08:55;;;;;;;32.92;13.85;;;10.10;99.90;;;;;;5020194;28;20038;-66
2021/12/15 00:11:23;;;;;;;34.47;14.05;;;10.10;99.90;;;;;;5016545;28;20029;-66
2021/12/15 00:13:52;;;;;;;28.42;12.73;;;10.00;99.90;;;;;;5022635;28;20022;-66
2021/12/15 00:16:18;;;;;;;33.78;15.32;;;10.00;99.90;;;;;;5015378;28;20512;-67
2021/12/15 00:18:44;;;;;;;32.25;13.82;;;10.00;99.90;;;;;;5018392;28;20048;-65
2021/12/15 00:21:14;;;;;;;33.15;14.25;;;10.00;99.90;;;;;;5026534;28;20469;-65
2021/12/15 00:23:41;;;;;;;27.45;11.45;;;10.10;99.90;;;;;;5019309;28;20129;-66
2021/12/15 00:26:07;;;;;;;35.97;14.23;;;10.10;99.90;;;;;;5000221;28;20087;-67
2021/12/15 00:28:33;;;;;;;30.63;13.50;;;10.10;99.90;;;;;;5015826;28;20432;-67
2021/12/15 00:30:58;;;;;;;34.13;14.82;;;10.10;99.90;;;;;;5017296;28;20122;-65
2021/12/15 00:33:24;;;;;;;33.80;13.82;;;10.10;99.90;;;;;;5025412;28;20493;-66
2021/12/15 00:35:50;;;;;;;33.22;14.70;;;10.00;99.90;;;;;;5020208;28;20088;-67
2021/12/15 00:38:16;;;;;;;30.88;14.13;;;10.10;99.90;;;;;;5023869;28;20120;-65
2021/12/15 00:40:41;;;;;;;37.90;14.65;;;10.10;99.90;;;;;;5022387;28;20038;-68
2021/12/15 00:43:07;;;;;;;31.83;13.38;;;10.10;99.90;;;;;;5026320;28;20029;-65
2021/12/15 00:45:33;;;;;;;33.38;14.32;;;10.10;99.90;;;;;;5019820;28;20370;-67
2021/12/15 00:47:59;;;;;;;31.80;13.23;;;10.10;99.90;;;;;;5017345;28;20043;-66
2021/12/15 00:50:28;;;;;;;35.67;15.13;;;10.10;99.90;;;;;;5019604;28;20103;-65
2021/12/15 00:52:54;;;;;;;35.78;15.18;;;10.10;99.90;;;;;;5022707;28;20025;-65
2021/12/15 00:55:25;;;;;;;31.70;14.82;;;10.10;99.90;;;;;;5016295;28;20545;-65
2021/12/15 00:57:52;;;;;;;32.60;14.70;;;10.10;99.90;;;;;;5020131;28;20026;-67
2021/12/15 01:00:31;;;;;;;33.50;14.55;;;10.10;99.90;;;;;;5018623;28;20125;-64
2021/12/15 01:02:57;;;;;;;30.58;13.02;;;10.10;99.90;;;;;;5014627;28;20128;-66
2021/12/15 01:05:30;;;;;;;29.77;13.82;;;10.00;99.90;;;;;;5018643;28;20208;-66
2021/12/15 01:07:55;;;;;;;33.28;14.52;;;10.00;99.90;;;;;;5018564;28;20079;-66
2021/12/15 01:10:30;;;;;;;31.23;14.05;;;10.00;99.90;;;;;;5020334;28;20433;-66
2021/12/15 01:21:02;;;;;;;35.33;14.70;;;10.00;99.90;;;;;;5020793;28;20049;-65
2021/12/15 01:23:29;;;;;;;34.22;14.20;;;10.10;99.90;;;;;;5022011;28;20090;-69
2021/12/15 01:26:00;;;;;;;34.35;13.15;;;10.00;99.90;;;;;;5022307;28;20083;-67
2021/12/15 01:28:27;;;;;;;34.25;14.18;;;10.00;99.90;;;;;;5017396;28;20033;-66
2021/12/15 01:30:54;;;;;;;29.98;13.68;;;10.00;99.90;;;;;;5000020;28;20038;-66
2021/12/15 01:33:21;;;;;;;34.47;15.02;;;10.10;99.90;;;;;;5019486;28;20093;-65
2021/12/15 01:35:48;;;;;;;27.92;13.68;;;10.10;99.90;;;;;;5022312;28;20105;-65
2021/12/15 01:38:15;;;;;;;32.22;13.35;;;10.10;99.90;;;;;;5022733;28;20072;-66
2021/12/15 01:40:43;;;;;;;32.92;14.68;;;10.10;99.90;;;;;;5021803;28;20084;-65
2021/12/15 01:43:18;;;;;;;31.38;13.75;;;10.10;99.90;;;;;;5028168;28;20038;-64
2021/12/15 01:48:33;;;;;;;30.98;13.35;;;10.10;99.90;;;;;;5021751;28;20105;-66
2021/12/15 01:50:58;;;;;;;31.85;15.20;;;10.10;99.90;;;;;;5021146;28;20069;-65
2021/12/15 01:53:24;;;;;;;29.30;13.80;;;10.10;99.90;;;;;;5020698;28;20041;-66
2021/12/15 01:55:52;;;;;;;32.65;14.85;;;10.10;99.90;;;;;;5018729;28;20041;-65
2021/12/15 01:58:17;;;;;;;32.88;14.80;;;10.20;99.90;;;;;;4995999;28;20018;-67
2021/12/15 02:00:49;;;;;;;29.67;13.90;;;10.10;99.90;;;;;;5020576;28;20033;-64
2021/12/15 02:03:15;;;;;;;29.92;13.45;;;10.10;99.90;;;;;;5004950;28;20060;-65
2021/12/15 02:05:41;;;;;;;32.50;13.60;;;10.10;99.90;;;;;;5020955;28;20022;-66
2021/12/15 02:08:07;;;;;;;33.38;14.32;;;10.10;99.90;;;;;;5023657;28;20038;-66
2021/12/15 02:10:36;;;;;;;30.70;13.73;;;10.10;99.90;;;;;;5017695;28;20039;-66
2021/12/15 02:13:07;;;;;;;31.42;13.88;;;10.10;99.90;;;;;;5017225;28;20063;-66
2021/12/15 02:15:40;;;;;;;39.08;16.15;;;10.00;99.90;;;;;;5021241;28;20038;-66
2021/12/15 02:18:09;;;;;;;31.35;13.75;;;10.10;99.90;;;;;;5020853;28;20030;-66
2021/12/15 02:20:41;;;;;;;34.45;13.75;;;10.10;99.90;;;;;;5026183;28;20124;-66
2021/12/15 02:23:10;;;;;;;34.13;15.25;;;10.00;99.90;;;;;;5005382;28;20107;-67
2021/12/15 02:25:35;;;;;;;32.55;14.43;;;10.00;99.90;;;;;;5024430;28;20034;-66
2021/12/15 02:28:03;;;;;;;32.50;13.95;;;10.10;99.90;;;;;;5019938;28;20056;-67
2021/12/15 02:30:47;;;;;;;36.33;15.35;;;10.10;99.90;;;;;;5027934;28;20045;-66
2021/12/15 02:38:40;;;;;;;31.55;13.43;;;10.10;99.90;;;;;;5016416;28;20586;-65
2021/12/15 02:41:12;;;;;;;32.03;13.85;;;10.10;99.90;;;;;;5018814;28;20042;-65
2021/12/15 02:43:39;;;;;;;31.35;14.52;;;10.10;99.90;;;;;;5025618;28;20053;-67
2021/12/15 02:46:06;;;;;;;30.55;13.40;;;10.10;99.90;;;;;;5026666;28;20566;-65
2021/12/15 02:48:32;;;;;;;30.90;12.50;;;10.10;99.90;;;;;;5024460;28;20377;-65
2021/12/15 02:50:58;;;;;;;33.60;14.38;;;10.10;99.90;;;;;;5019694;28;20046;-66
2021/12/15 02:53:24;;;;;;;28.27;12.65;;;10.00;99.90;;;;;;5019948;28;20045;-65
2021/12/15 02:55:50;;;;;;;31.60;13.60;;;10.10;99.90;;;;;;5022703;28;20026;-65
2021/12/15 02:58:18;;;;;;;32.33;14.40;;;10.00;99.90;;;;;;5023212;28;20129;-64
2021/12/15 03:00:52;;;;;;;34.00;14.25;;;10.00;99.90;;;;;;5023538;28;20030;-66
2021/12/15 03:06:03;;;;;;;31.35;13.07;;;10.00;99.90;;;;;;5024761;28;20113;-67
2021/12/15 03:08:49;;;;;;;30.83;13.95;;;10.00;99.90;;;;;;5001713;28;20087;-65
2021/12/15 03:16:44;;;;;;;27.65;13.23;;;10.00;99.90;;;;;;5030932;28;20210;-67
2021/12/15 03:19:10;;;;;;;27.80;12.63;;;10.00;99.90;;;;;;5018703;28;20030;-67
2021/12/15 03:21:37;;;;;;;25.15;12.45;;;10.10;99.90;;;;;;5026709;28;20063;-65
2021/12/15 03:24:13;;;;;;;29.83;13.63;;;10.00;99.90;;;;;;5019308;28;20048;-64
2021/12/15 03:26:47;;;;;;;31.25;14.18;;;10.00;99.90;;;;;;5021759;28;20160;-64
2021/12/15 03:37:28;;;;;;;33.53;14.10;;;10.00;99.90;;;;;;5015666;28;22833;-66
2021/12/15 03:39:55;;;;;;;34.17;13.57;;;10.10;99.90;;;;;;5022684;28;20048;-65
2021/12/15 03:42:27;;;;;;;29.95;13.93;;;10.00;99.90;;;;;;5014850;28;20448;-67
2021/12/15 03:44:53;;;;;;;43.58;15.82;;;10.00;99.90;;;;;;5023036;28;20452;-64
2021/12/15 03:47:27;;;;;;;29.42;14.30;;;10.10;99.90;;;;;;5022497;28;20032;-65
2021/12/15 03:49:55;;;;;;;29.98;13.10;;;10.00;99.90;;;;;;5022844;28;20030;-64
2021/12/15 03:52:20;;;;;;;30.60;13.80;;;10.10;99.90;;;;;;5005316;28;20037;-65
2021/12/15 03:54:47;;;;;;;33.03;13.27;;;10.10;99.90;;;;;;5011216;28;20083;-65
2021/12/15 03:57:13;;;;;;;32.83;13.18;;;10.10;99.90;;;;;;5001697;28;20444;-64
2021/12/15 03:59:44;;;;;;;28.75;12.85;;;10.10;99.90;;;;;;5015065;28;20029;-66
2021/12/15 04:02:16;;;;;;;31.08;13.40;;;10.10;99.90;;;;;;5027488;28;20033;-66
2021/12/15 04:04:43;;;;;;;29.48;13.05;;;10.10;99.90;;;;;;5024108;28;20041;-66
2021/12/15 04:07:13;;;;;;;35.42;13.85;;;10.10;99.90;;;;;;5018866;28;20121;-67
2021/12/15 04:09:39;;;;;;;29.55;13.13;;;10.10;99.90;;;;;;5017097;28;20030;-67
2021/12/15 04:12:05;;;;;;;30.90;13.35;;;10.10;99.90;;;;;;5016871;28;20733;-65
2021/12/15 04:14:41;;;;;;;34.58;14.80;;;10.10;99.90;;;;;;5019382;28;20036;-65
2021/12/15 04:17:17;;;;;;;30.60;13.27;;;10.10;99.90;;;;;;5014607;28;20136;-66
2021/12/15 04:19:43;;;;;;;28.98;13.63;;;10.10;99.90;;;;;;4996997;28;20069;-67
2021/12/15 04:22:09;;;;;;;30.50;13.82;;;10.10;99.90;;;;;;5016823;28;20029;-66
2021/12/15 04:24:35;;;;;;;35.22;13.98;;;10.10;99.90;;;;;;5025769;28;20087;-67
2021/12/15 04:27:01;;;;;;;34.40;13.90;;;10.10;99.90;;;;;;5001557;28;20099;-65
2021/12/15 04:29:29;;;;;;;27.33;13.15;;;10.10;99.90;;;;;;5015067;28;20031;-65
2021/12/15 04:32:05;;;;;;;31.95;13.55;;;10.10;99.90;;;;;;5025874;28;20044;-66
2021/12/15 04:34:31;;;;;;;34.10;13.20;;;10.10;99.90;;;;;;5019174;28;20042;-65
2021/12/15 04:36:56;;;;;;;34.03;13.68;;;10.10;99.90;;;;;;5014990;28;20092;-67
2021/12/15 04:39:25;;;;;;;32.90;13.68;;;10.10;99.90;;;;;;5022569;28;20041;-66
2021/12/15 04:41:53;;;;;;;38.17;14.65;;;10.10;99.90;;;;;;5019017;28;20030;-67
2021/12/15 04:44:20;;;;;;;32.05;13.88;;;10.10;99.90;;;;;;5018726;28;20033;-67
2021/12/15 04:46:59;;;;;;;34.63;13.45;;;10.20;99.90;;;;;;5018823;28;20091;-65
2021/12/15 04:49:27;;;;;;;37.58;13.57;;;10.10;99.90;;;;;;5022943;28;20429;-65
2021/12/15 04:51:52;;;;;;;38.95;14.52;;;10.20;99.90;;;;;;5014570;28;20509;-67
2021/12/15 04:54:19;;;;;;;33.30;13.65;;;10.10;99.90;;;;;;5018511;28;20033;-66
2021/12/15 04:56:45;;;;;;;35.10;13.15;;;10.10;99.90;;;;;;5022369;28;20038;-65
2021/12/15 04:59:11;;;;;;;32.63;13.95;;;10.10;99.90;;;;;;5019408;28;20052;-66
2021/12/15 05:01:37;;;;;;;30.10;12.73;;;10.10;99.90;;;;;;5007664;28;20041;-66
2021/12/15 05:04:03;;;;;;;33.75;13.93;;;10.10;99.90;;;;;;5020971;28;20046;-68
2021/12/15 05:06:29;;;;;;;39.30;13.98;;;10.20;99.90;;;;;;5014775;28;20037;-65
2021/12/15 05:08:55;;;;;;;37.35;13.60;;;10.20;99.90;;;;;;5018779;28;20045;-66
2021/12/15 05:11:21;;;;;;;33.10;12.70;;;10.20;99.90;;;;;;5024599;28;20650;-65
2021/12/15 05:13:47;;;;;;;37.05;12.65;;;10.10;99.90;;;;;;5034070;28;20048;-65
2021/12/15 05:16:16;;;;;;;35.95;14.15;;;10.10;99.90;;;;;;5022570;28;20049;-66
2021/12/15 05:18:43;;;;;;;34.92;14.35;;;10.10;99.90;;;;;;5029317;28;20083;-64
2021/12/15 05:21:10;;;;;;;35.97;13.13;;;10.20;99.90;;;;;;5017433;28;20080;-64
2021/12/15 05:23:36;;;;;;;44.17;14.77;;;10.20;99.90;;;;;;5005501;28;20034;-66
2021/12/15 05:26:03;;;;;;;33.40;13.75;;;10.10;99.90;;;;;;5024275;28;20038;-66
2021/12/15 05:28:30;;;;;;;31.85;13.65;;;10.10;99.90;;;;;;5021780;28;20033;-67
2021/12/15 05:30:57;;;;;;;34.85;12.73;;;10.10;99.90;;;;;;5022050;28;20037;-67
2021/12/15 05:33:24;;;;;;;27.00;13.02;;;10.20;99.90;;;;;;5025294;28;20673;-66
2021/12/15 05:35:50;;;;;;;33.17;14.27;;;10.10;99.90;;;;;;5024667;28;20029;-65
2021/12/15 05:38:17;;;;;;;36.22;14.27;;;10.20;99.90;;;;;;5033001;28;20030;-65
2021/12/15 05:40:43;;;;;;;34.92;13.18;;;10.20;99.90;;;;;;5026212;28;20029;-66
2021/12/15 05:43:09;;;;;;;30.38;12.60;;;10.10;99.90;;;;;;5025468;28;20041;-66
2021/12/15 05:45:38;;;;;;;36.28;14.45;;;10.20;99.90;;;;;;5015711;28;20034;-65
2021/12/15 05:48:06;;;;;;;35.53;13.80;;;10.20;99.90;;;;;;5024636;28;20040;-66
2021/12/15 05:50:34;;;;;;;36.88;14.65;;;10.20;99.90;;;;;;5023340;28;20068;-66
2021/12/15 05:53:01;;;;;;;35.60;13.82;;;10.10;99.90;;;;;;5021913;28;20022;-66
2021/12/15 05:55:28;;;;;;;40.95;14.32;;;10.20;99.90;;;;;;5032112;28;20038;-64
2021/12/15 05:57:53;;;;;;;36.30;14.27;;;10.20;99.90;;;;;;5019042;28;20033;-66
2021/12/15 06:00:25;;;;;;;34.15;12.98;;;10.10;99.90;;;;;;5022622;28;20034;-63
2021/12/15 06:02:54;;;;;;;43.00;15.20;;;10.10;99.90;;;;;;5016095;28;20414;-66
2021/12/15 06:05:20;;;;;;;40.20;13.77;;;10.10;99.90;;;;;;5000706;28;20037;-65
2021/12/15 06:07:46;;;;;;;47.22;15.02;;;10.10;99.90;;;;;;5004336;28;20030;-65
2021/12/15 06:10:15;;;;;;;36.28;14.75;;;10.20;99.90;;;;;;5017470;28;20037;-66
2021/12/15 06:12:43;;;;;;;40.55;15.40;;;10.20;99.90;;;;;;5023932;28;20561;-66
2021/12/15 06:15:09;;;;;;;36.72;14.07;;;10.10;99.90;;;;;;5024532;28;20033;-65
2021/12/15 06:17:35;;;;;;;45.90;15.65;;;10.10;99.90;;;;;;5023392;28;20041;-66
2021/12/15 06:20:00;;;;;;;46.13;14.48;;;10.20;99.90;;;;;;5022350;28;20041;-66
2021/12/15 06:22:28;;;;;;;43.08;14.52;;;10.10;99.90;;;;;;4997688;28;20033;-64
2021/12/15 06:24:55;;;;;;;41.20;14.65;;;10.20;99.90;;;;;;5016273;28;20065;-66
2021/12/15 06:27:23;;;;;;;42.63;14.38;;;10.20;99.90;;;;;;5017071;28;20065;-66
2021/12/15 06:29:50;;;;;;;39.72;14.38;;;10.10;99.90;;;;;;5020585;28;20037;-66
2021/12/15 06:32:16;;;;;;;40.47;13.48;;;10.10;99.90;;;;;;5015805;28;20092;-66
2021/12/15 06:34:42;;;;;;;43.95;15.32;;;10.20;99.90;;;;;;5007301;28;20040;-65
2021/12/15 06:37:09;;;;;;;40.58;15.18;;;10.10;99.90;;;;;;5020095;28;20049;-67
2021/12/15 06:39:35;;;;;;;44.88;14.98;;;10.10;99.90;;;;;;5019886;28;20038;-65
2021/12/15 06:42:01;;;;;;;49.60;15.35;;;10.10;99.90;;;;;;5002610;28;20061;-65
2021/12/15 06:44:26;;;;;;;48.30;16.30;;;10.10;99.90;;;;;;5023408;28;20045;-66
2021/12/15 06:47:22;;;;;;;47.05;14.90;;;10.10;99.90;;;;;;5022734;28;20053;-67
2021/12/15 06:58:11;;;;;;;42.67;14.52;;;10.20;99.90;;;;;;5018318;28;20530;-66
2021/12/15 07:00:44;;;;;;;49.22;15.02;;;10.20;99.90;;;;;;5022086;28;20141;-64
2021/12/15 07:03:10;;;;;;;42.08;16.05;;;10.10;99.90;;;;;;5021852;28;20040;-67
2021/12/15 07:05:36;;;;;;;47.30;14.95;;;10.20;99.90;;;;;;5022964;28;20042;-66
2021/12/15 07:08:03;;;;;;;43.78;15.88;;;10.20;99.90;;;;;;5020599;28;20494;-65
2021/12/15 07:10:31;;;;;;;44.40;15.20;;;10.20;99.90;;;;;;5015050;28;20047;-65
2021/12/15 07:12:58;;;;;;;46.65;15.60;;;10.20;99.90;;;;;;4997588;28;20494;-65
2021/12/15 07:15:25;;;;;;;57.50;16.30;;;10.20;99.90;;;;;;5020251;28;20109;-64
2021/12/15 07:17:53;;;;;;;46.70;14.93;;;10.20;99.90;;;;;;5015136;28;20037;-65
2021/12/15 07:22:56;;;;;;;44.65;15.57;;;10.20;99.90;;;;;;5019423;28;20064;-67
2021/12/15 07:25:22;;;;;;;50.25;16.33;;;10.20;99.90;;;;;;4996718;28;20045;-64
2021/12/15 07:27:48;;;;;;;43.88;15.57;;;10.20;99.90;;;;;;5020116;28;20520;-64
2021/12/15 07:30:15;;;;;;;39.67;14.77;;;10.20;99.90;;;;;;5021383;28;20041;-62
2021/12/15 07:32:41;;;;;;;50.72;17.30;;;10.20;99.90;;;;;;5015256;28;20429;-66
2021/12/15 07:35:09;;;;;;;44.53;15.60;;;10.20;99.90;;;;;;5015777;28;20038;-66
2021/12/15 07:37:35;;;;;;;43.17;15.60;;;10.20;99.90;;;;;;5014504;28;20042;-64
2021/12/15 07:40:02;;;;;;;44.05;13.95;;;10.20;99.90;;;;;;5024049;28;20158;-64
2021/12/15 07:42:42;;;;;;;44.67;15.10;;;10.20;99.90;;;;;;5021698;28;20487;-66
2021/12/15 07:45:10;;;;;;;47.17;14.52;;;10.30;99.90;;;;;;5002812;28;20029;-67
2021/12/15 07:47:35;;;;;;;46.67;15.27;;;10.20;99.90;;;;;;5022357;28;20042;-66
2021/12/15 07:50:02;;;;;;;43.45;14.40;;;10.30;99.90;;;;;;5022072;28;20509;-66
2021/12/15 07:52:29;;;;;;;43.88;15.07;;;10.20;99.90;;;;;;5020647;28;20164;-65
2021/12/15 07:54:55;;;;;;;42.50;14.88;;;10.30;99.90;;;;;;5017814;28;20059;-66
2021/12/15 07:57:23;;;;;;;50.80;15.05;;;10.30;99.90;;;;;;5013904;28;20057;-64
2021/12/15 07:59:49;;;;;;;43.58;15.05;;;10.30;99.90;;;;;;5016546;28;20494;-64
2021/12/15 08:02:16;;;;;;;53.88;16.20;;;10.30;99.90;;;;;;5017724;28;20127;-67
2021/12/15 08:04:41;;;;;;;46.97;15.40;;;10.30;99.90;;;;;;5016498;28;20068;-66
2021/12/15 08:07:07;;;;;;;42.17;15.52;;;10.30;99.90;;;;;;5016950;28;20081;-66
2021/12/15 08:09:33;;;;;;;44.50;14.90;;;10.20;99.90;;;;;;5011777;28;20041;-66
2021/12/15 08:11:58;;;;;;;40.90;13.40;;;10.30;99.90;;;;;;5019017;28;20382;-66
2021/12/15 08:14:24;;;;;;;39.50;14.90;;;10.30;99.90;;;;;;5013457;28;20109;-66
2021/12/15 08:16:50;;;;;;;40.17;15.38;;;10.30;99.90;;;;;;5013851;28;20033;-65
2021/12/15 08:19:18;;;;;;;45.83;15.25;;;10.30;99.90;;;;;;5015255;28;20030;-64
2021/12/15 08:21:44;;;;;;;41.95;14.13;;;10.40;99.90;;;;;;5024662;28;20520;-68
2021/12/15 08:24:10;;;;;;;41.63;14.65;;;10.40;99.90;;;;;;5020596;28;20022;-64
2021/12/15 08:26:35;;;;;;;44.90;15.50;;;10.30;99.90;;;;;;5018320;28;20072;-65
2021/12/15 08:29:01;;;;;;;41.47;14.02;;;10.30;99.90;;;;;;5018546;28;20041;-65
2021/12/15 08:31:27;;;;;;;41.97;13.55;;;10.30;99.90;;;;;;5014013;28;20828;-64
2021/12/15 08:33:53;;;;;;;41.65;13.57;;;10.30;99.90;;;;;;5013806;28;20064;-66
2021/12/15 08:36:19;;;;;;;38.33;13.70;;;10.30;99.90;;;;;;5012543;28;20049;-64
2021/12/15 08:38:47;;;;;;;48.88;15.57;;;10.40;99.90;;;;;;5017263;28;20049;-65
2021/12/15 08:41:17;;;;;;;41.08;14.20;;;10.30;99.90;;;;;;5013615;28;20378;-66
2021/12/15 08:43:43;;;;;;;36.00;13.43;;;10.40;99.90;;;;;;5022092;28;20036;-64
2021/12/15 08:46:31;;;;;;;42.88;13.52;;;10.40;99.90;;;;;;5023296;28;20037;-65
2021/12/15 08:48:58;;;;;;;35.47;13.43;;;10.40;99.90;;;;;;5020543;28;20053;-64
2021/12/15 08:51:27;;;;;;;40.80;14.07;;;10.40;99.90;;;;;;5024151;28;20037;-65
2021/12/15 08:53:59;;;;;;;41.97;13.35;;;10.50;99.90;;;;;;5022379;28;20030;-66
2021/12/15 08:56:25;;;;;;;36.85;13.65;;;10.50;99.90;;;;;;5002644;28;20034;-66
2021/12/15 08:58:52;;;;;;;38.22;12.73;;;10.50;99.90;;;;;;5021892;28;20675;-63
2021/12/15 09:01:19;;;;;;;33.50;12.05;;;10.50;99.90;;;;;;5017257;28;20037;-66
2021/12/15 09:03:45;;;;;;;36.22;13.68;;;10.50;99.90;;;;;;5020891;28;20034;-67
2021/12/15 09:06:12;;;;;;;40.35;13.20;;;10.60;99.90;;;;;;5005205;28;20478;-65
2021/12/15 09:08:39;;;;;;;39.40;13.57;;;10.60;99.90;;;;;;5022065;28;20489;-67
2021/12/15 09:11:10;;;;;;;42.67;14.63;;;10.60;99.90;;;;;;5018847;28;20706;-66
2021/12/15 09:13:36;;;;;;;32.60;11.95;;;10.60;99.90;;;;;;5001143;28;20029;-65
2021/12/15 09:16:07;;;;;;;37.45;12.35;;;10.60;99.90;;;;;;5001178;28;20389;-65
2021/12/15 09:18:35;;;;;;;31.55;12.60;;;10.60;99.90;;;;;;5025100;28;20046;-64
2021/12/15 09:21:02;;;;;;;32.75;12.93;;;10.60;99.90;;;;;;5016466;28;20120;-65
2021/12/15 09:23:27;;;;;;;36.22;12.73;;;10.60;99.90;;;;;;5005619;28;20053;-64
2021/12/15 09:25:54;;;;;;;35.78;12.65;;;10.70;99.90;;;;;;5023131;28;20053;-66
2021/12/15 09:28:19;;;;;;;37.10;13.77;;;10.60;99.90;;;;;;5022538;28;20092;-67
2021/12/15 09:30:48;;;;;;;32.45;11.88;;;10.70;99.90;;;;;;5024126;28;20037;-67
2021/12/15 09:33:20;;;;;;;38.95;11.70;;;10.70;99.90;;;;;;5019479;28;20122;-66
2021/12/15 09:35:47;;;;;;;26.90;11.15;;;10.70;99.90;;;;;;5021856;28;20477;-66
2021/12/15 09:38:14;;;;;;;29.40;11.80;;;10.70;99.90;;;;;;5014901;28;20025;-65
2021/12/15 09:40:40;;;;;;;31.65;11.95;;;10.70;99.90;;;;;;5017509;28;20562;-65
2021/12/15 09:43:07;;;;;;;34.58;12.10;;;10.80;99.90;;;;;;5023373;28;20228;-65
2021/12/15 10:04:23;;;;;;;24.65;9.77;;;11.00;99.90;;;;;;5018315;28;20029;-68
2021/12/15 10:18:02;;;;;;;22.23;9.53;;;11.00;99.90;;;;;;5016797;28;20053;-65
2021/12/15 10:20:31;;;;;;;20.70;8.90;;;11.10;99.90;;;;;;5020176;28;20659;-67
2021/12/15 10:23:01;;;;;;;22.70;8.68;;;11.10;99.90;;;;;;5020971;28;20557;-65
2021/12/15 10:25:26;;;;;;;19.98;8.77;;;11.20;99.90;;;;;;5012021;28;20591;-66
2021/12/15 10:27:59;;;;;;;22.40;8.80;;;11.20;99.90;;;;;;5022454;28;20452;-66
2021/12/15 10:30:33;;;;;;;20.60;8.45;;;11.20;99.90;;;;;;5013730;28;20034;-67
2021/12/15 10:33:10;;;;;;;21.92;8.63;;;11.20;99.90;;;;;;5013828;28;20044;-66
2021/12/15 10:35:48;;;;;;;23.00;9.52;;;11.20;99.90;;;;;;5022388;28;20060;-64
2021/12/15 10:38:19;;;;;;;23.85;8.32;;;11.20;99.90;;;;;;5024360;28;20393;-64
2021/12/15 10:40:45;;;;;;;25.25;9.23;;;11.10;99.90;;;;;;5001986;28;20037;-69
2021/12/15 10:43:11;;;;;;;22.17;8.52;;;11.10;99.90;;;;;;5015092;28;20036;-65
2021/12/15 10:45:52;;;;;;;18.83;7.43;;;11.10;99.90;;;;;;4995397;28;20026;-66
2021/12/15 10:48:34;;;;;;;15.40;8.00;;;11.10;99.90;;;;;;5001513;28;20029;-67
2021/12/15 10:51:01;;;;;;;16.10;7.93;;;11.10;99.90;;;;;;5024053;28;20049;-66
2021/12/15 10:53:35;;;;;;;21.38;8.13;;;11.10;99.90;;;;;;5015921;28;20037;-64
2021/12/15 10:56:09;;;;;;;17.95;7.60;;;11.10;99.90;;;;;;5015500;28;20458;-65
2021/12/15 10:58:39;;;;;;;20.55;8.15;;;11.10;99.90;;;;;;5019022;28;20463;-66
2021/12/15 11:01:40;;;;;;;22.70;8.38;;;11.10;99.90;;;;;;5018156;28;20104;-65
2021/12/15 11:04:26;;;;;;;17.80;7.88;;;11.20;99.90;;;;;;4997680;28;20437;-66
2021/12/15 11:07:16;;;;;;;23.25;9.23;;;11.10;99.90;;;;;;5000808;28;20061;-64
2021/12/15 11:09:45;;;;;;;15.70;7.50;;;11.10;99.90;;;;;;5001598;28;20033;-63
2021/12/15 11:12:28;;;;;;;19.70;8.10;;;11.20;99.90;;;;;;5019392;28;20037;-65
2021/12/15 11:15:00;;;;;;;16.15;7.28;;;11.30;99.90;;;;;;5019104;28;20053;-66
2021/12/15 11:17:31;;;;;;;19.88;7.82;;;11.30;99.90;;;;;;5022098;28;20029;-66
2021/12/15 11:20:06;;;;;;;19.42;7.75;;;11.30;99.90;;;;;;5016485;28;20034;-65
2021/12/15 11:22:41;;;;;;;18.20;7.53;;;11.30;99.90;;;;;;5018898;28;20044;-64
2021/12/15 11:25:27;;;;;;;22.42;7.55;;;11.40;99.90;;;;;;5000147;28;20033;-66
2021/12/15 11:28:19;;;;;;;16.27;7.55;;;11.40;99.90;;;;;;5008919;28;20095;-63
2021/12/15 11:30:53;;;;;;;20.67;8.32;;;11.40;99.90;;;;;;5023435;28;20029;-64
2021/12/15 11:33:21;;;;;;;22.52;7.82;;;11.50;99.90;;;;;;5015857;28;20549;-66
2021/12/15 11:35:59;;;;;;;19.70;7.63;;;11.50;99.90;;;;;;5017962;28;20037;-65
2021/12/15 11:38:30;;;;;;;18.25;7.05;;;11.60;99.90;;;;;;5018359;28;20501;-63
2021/12/15 11:40:56;;;;;;;15.57;6.40;;;11.60;99.90;;;;;;5019289;28;20038;-66
2021/12/15 11:43:48;;;;;;;14.52;6.82;;;11.60;99.90;;;;;;5018721;28;20405;-63
2021/12/15 11:46:35;;;;;;;14.73;6.63;;;11.60;99.90;;;;;;5000675;28;20061;-67
2021/12/15 11:49:07;;;;;;;16.90;6.25;;;11.60;99.90;;;;;;5014886;28;20057;-65
2021/12/15 11:51:35;;;;;;;12.85;5.45;;;11.60;99.90;;;;;;5017091;28;20056;-67
2021/12/15 11:54:12;;;;;;;19.20;6.70;;;11.60;99.90;;;;;;5005209;28;20118;-64
2021/12/15 11:56:38;;;;;;;14.70;6.53;;;11.60;99.90;;;;;;5017503;28;20033;-66
2021/12/15 11:59:20;;;;;;;17.65;6.07;;;11.60;99.90;;;;;;5018561;28;20382;-65
2021/12/15 12:02:08;;;;;;;18.30;5.05;;;11.60;99.90;;;;;;5013394;28;20034;-68
2021/12/15 12:04:44;;;;;;;14.95;6.38;;;11.60;99.90;;;;;;5001262;28;20393;-65
2021/12/15 12:07:10;;;;;;;13.82;5.10;;;11.60;99.90;;;;;;5013829;28;20038;-66
2021/12/15 12:09:38;;;;;;;13.98;6.18;;;11.60;99.90;;;;;;5012659;28;20038;-66
2021/12/15 12:12:05;;;;;;;13.57;5.30;;;11.70;99.90;;;;;;5013991;28;20046;-66
2021/12/15 12:14:49;;;;;;;16.02;5.30;;;11.70;99.90;;;;;;5014178;28;20459;-65
2021/12/15 12:17:17;;;;;;;14.90;6.53;;;11.70;99.90;;;;;;5023748;28;20037;-66
2021/12/15 12:19:48;;;;;;;14.50;4.53;;;11.70;99.90;;;;;;5012624;28;20559;-66
2021/12/15 12:22:16;;;;;;;16.10;4.80;;;11.80;99.90;;;;;;5018243;28;20041;-69
2021/12/15 12:24:44;;;;;;;9.27;3.90;;;11.80;99.90;;;;;;5012884;28;20060;-66
2021/12/15 12:27:10;;;;;;;15.90;4.15;;;11.80;99.90;;;;;;5015570;28;20037;-67
2021/12/15 12:29:37;;;;;;;10.77;3.45;;;11.80;99.90;;;;;;5012295;28;20560;-67
2021/12/15 12:32:04;;;;;;;9.30;3.20;;;11.70;99.90;;;;;;5000055;28;20045;-67
2021/12/15 12:34:30;;;;;;;11.98;3.20;;;11.80;99.90;;;;;;5022189;28;20030;-67
2021/12/15 12:36:56;;;;;;;11.35;3.30;;;11.80;99.90;;;;;;5015038;28;20052;-66
2021/12/15 12:39:33;;;;;;;12.18;3.95;;;11.80;99.90;;;;;;5019648;28;20045;-66
2021/12/15 12:41:59;;;;;;;11.65;3.35;;;11.80;99.90;;;;;;4993537;28;20086;-68
2021/12/15 12:44:35;;;;;;;12.20;3.42;;;11.80;99.90;;;;;;5021271;28;20072;-65
2021/12/15 12:47:06;;;;;;;10.05;2.92;;;11.90;99.90;;;;;;5015995;28;20052;-66
2021/12/15 13:00:56;;;;;;;12.40;4.00;;;11.80;99.90;;;;;;5017949;28;20062;-66
2021/12/15 13:03:33;;;;;;;9.43;4.13;;;11.80;99.90;;;;;;5020673;28;20045;-65
2021/12/15 13:06:05;;;;;;;7.47;3.22;;;11.80;99.90;;;;;;5017293;28;20624;-65
2021/12/15 13:08:43;;;;;;;8.38;3.13;;;11.80;99.90;;;;;;5019809;28;20052;-65
2021/12/15 13:11:21;;;;;;;12.23;4.47;;;11.80;99.90;;;;;;5018682;28;20157;-65
2021/12/15 13:14:03;;;;;;;9.75;3.70;;;11.80;99.90;;;;;;5017318;28;20516;-68
2021/12/15 13:16:50;;;;;;;13.05;4.60;;;11.80;99.90;;;;;;5019581;28;20065;-66
2021/12/15 13:19:27;;;;;;;9.52;4.28;;;11.70;99.90;;;;;;5017933;28;20045;-64
2021/12/15 13:30:56;;;;;;;11.05;4.28;;;11.70;99.90;;;;;;5020527;28;20111;-67
2021/12/15 13:33:30;;;;;;;14.38;4.60;;;11.70;99.90;;;;;;5022144;28;20056;-64
2021/12/15 13:36:19;;;;;;;9.63;4.88;;;11.70;99.90;;;;;;5019204;28;20064;-65
2021/12/15 13:38:53;;;;;;;10.23;4.57;;;11.60;99.90;;;;;;5017888;28;20033;-65
2021/12/15 13:44:05;;;;;;;9.55;4.10;;;11.60;99.90;;;;;;5016036;28;20084;-64
2021/12/15 13:46:41;;;;;;;17.77;5.80;;;11.50;99.90;;;;;;5017065;28;20030;-64
2021/12/15 13:49:24;;;;;;;13.38;4.32;;;11.40;99.90;;;;;;5016708;28;20061;-64
2021/12/15 13:52:20;;;;;;;19.58;4.78;;;11.40;99.90;;;;;;5014106;28;20038;-65
2021/12/15 13:54:46;;;;;;;11.95;4.50;;;11.40;99.90;;;;;;5016730;28;20145;-71
2021/12/15 13:57:11;;;;;;;9.80;3.88;;;11.40;99.90;;;;;;5000836;28;20483;-65
2021/12/15 14:00:05;;;;;;;12.85;5.78;;;11.40;99.90;;;;;;5015779;28;20033;-66
2021/12/15 14:02:39;;;;;;;11.50;4.55;;;11.30;99.90;;;;;;5016615;28;20033;-63
2021/12/15 14:05:25;;;;;;;14.48;5.10;;;11.30;99.90;;;;;;4999380;28;20038;-64
2021/12/15 14:07:58;;;;;;;17.70;4.40;;;11.30;99.90;;;;;;5013070;28;20040;-65
2021/12/15 14:10:24;;;;;;;16.55;5.45;;;11.30;99.90;;;;;;5000873;28;20802;-66
2021/12/15 14:12:51;;;;;;;12.55;4.75;;;11.30;99.90;;;;;;5004577;28;20029;-65
2021/12/15 14:15:37;;;;;;;12.57;5.30;;;11.30;99.90;;;;;;5015745;28;20086;-65
2021/12/15 14:18:23;;;;;;;17.40;5.68;;;11.30;99.90;;;;;;5001873;28;20045;-66
2021/12/15 14:21:18;;;;;;;11.90;4.95;;;11.20;99.90;;;;;;5021873;28;20041;-65